Time;durP1;ratioP1;P1;durP2;ratioP2;P2;SDS_P1;SDS_P2;PMS_P1;PMS_P2;Temp;Humidity;BMP_temperature;BMP_pressure;BME280_temperature;BME280_humidity;BME280_pressure;Samples;Min_cycle;Max_cycle;Signal;HPM_P1;HPM_P2
2022/10/04 00:00:59;;;;;;;7.90;3.13;;;;;;;;;;5030846;28;20211;-61
2022/10/04 00:03:28;;;;;;;3.40;2.40;;;;;;;;;;5031220;28;20726;-61
2022/10/04 00:05:57;;;;;;;2.33;2.17;;;;;;;;;;5030570;28;20234;-61
2022/10/04 00:08:27;;;;;;;2.00;1.90;;;;;;;;;;5031174;28;20228;-61
2022/10/04 00:11:04;;;;;;;3.93;2.10;;;;;;;;;;5016190;28;20204;-61
2022/10/04 00:13:32;;;;;;;2.50;2.30;;;;;;;;;;5031046;28;20208;-60
2022/10/04 00:15:59;;;;;;;7.50;2.40;;;;;;;;;;5031008;28;20219;-61
2022/10/04 00:18:30;;;;;;;3.37;2.80;;;;;;;;;;5029086;28;20212;-61
2022/10/04 00:21:01;;;;;;;2.47;2.30;;;;;;;;;;5029416;28;20671;-61
2022/10/04 00:23:40;;;;;;;2.93;2.23;;;;;;;;;;5030411;28;20208;-61
2022/10/04 00:26:11;;;;;;;5.20;2.23;;;;;;;;;;5029341;28;20234;-61
2022/10/04 00:28:46;;;;;;;4.50;2.80;;;;;;;;;;5030725;28;20337;-61
2022/10/04 00:31:15;;;;;;;5.97;2.40;;;;;;;;;;5020074;28;20259;-61
2022/10/04 00:33:43;;;;;;;5.93;2.37;;;;;;;;;;5030777;28;20307;-61
2022/10/04 00:36:34;;;;;;;5.87;2.03;;;;;;;;;;5028970;28;20211;-61
2022/10/04 00:39:15;;;;;;;4.67;1.63;;;;;;;;;;5015508;28;20214;-61
2022/10/04 00:41:54;;;;;;;2.23;2.13;;;;;;;;;;5030350;28;20211;-61
2022/10/04 00:44:24;;;;;;;2.47;2.23;;;;;;;;;;5030251;28;20224;-61
2022/10/04 00:46:52;;;;;;;2.10;1.90;;;;;;;;;;5029879;28;20822;-61
2022/10/04 00:49:21;;;;;;;2.47;2.27;;;;;;;;;;5029686;28;20212;-61
2022/10/04 00:51:51;;;;;;;2.93;2.03;;;;;;;;;;5029603;28;20215;-61
2022/10/04 00:54:19;;;;;;;2.50;2.30;;;;;;;;;;5029595;28;20208;-61
2022/10/04 00:56:51;;;;;;;6.93;2.27;;;;;;;;;;5029376;28;20251;-61
2022/10/04 00:59:25;;;;;;;2.10;1.93;;;;;;;;;;5029814;28;20219;-61
2022/10/04 01:01:55;;;;;;;2.50;1.83;;;;;;;;;;5029153;28;20241;-61
2022/10/04 01:04:27;;;;;;;2.67;2.50;;;;;;;;;;5029465;28;20236;-61
2022/10/04 01:06:55;;;;;;;6.10;2.40;;;;;;;;;;5029668;28;20251;-61
2022/10/04 01:09:23;;;;;;;2.57;1.90;;;;;;;;;;5029417;28;20307;-61
2022/10/04 01:11:57;;;;;;;2.27;2.07;;;;;;;;;;5029717;28;20211;-61
2022/10/04 01:14:30;;;;;;;4.73;1.80;;;;;;;;;;5028993;28;20210;-62
2022/10/04 01:16:57;;;;;;;2.47;2.27;;;;;;;;;;5029255;28;20237;-63
2022/10/04 01:19:27;;;;;;;7.93;2.13;;;;;;;;;;5029052;28;20238;-61
2022/10/04 01:21:59;;;;;;;1.93;1.70;;;;;;;;;;5026994;28;20216;-61
2022/10/04 01:24:34;;;;;;;2.07;1.87;;;;;;;;;;5029032;28;20205;-61
2022/10/04 01:27:01;;;;;;;2.10;2.00;;;;;;;;;;5028861;28;20760;-61
2022/10/04 01:29:29;;;;;;;2.93;2.37;;;;;;;;;;5029287;28;20208;-61
2022/10/04 01:31:58;;;;;;;1.93;1.73;;;;;;;;;;5028779;28;20212;-61
2022/10/04 01:34:26;;;;;;;2.30;2.20;;;;;;;;;;5027642;28;20204;-61
2022/10/04 01:36:55;;;;;;;3.77;2.20;;;;;;;;;;5027978;28;20205;-62
2022/10/04 01:39:23;;;;;;;2.33;2.17;;;;;;;;;;5028944;28;20945;-62
2022/10/04 01:41:55;;;;;;;5.90;2.17;;;;;;;;;;5028110;28;20675;-61
2022/10/04 01:44:25;;;;;;;9.63;2.13;;;;;;;;;;5028335;28;20238;-61
2022/10/04 01:46:54;;;;;;;2.93;1.80;;;;;;;;;;5026308;28;20224;-61
2022/10/04 01:49:27;;;;;;;3.00;2.17;;;;;;;;;;5028214;28;20687;-61
2022/10/04 01:51:56;;;;;;;4.60;2.10;;;;;;;;;;5028329;28;20209;-61
2022/10/04 01:54:30;;;;;;;3.43;2.23;;;;;;;;;;5028873;28;20201;-61
2022/10/04 01:57:01;;;;;;;2.27;2.17;;;;;;;;;;5027197;28;20211;-61
2022/10/04 01:59:30;;;;;;;4.83;2.37;;;;;;;;;;5028218;28;20208;-61
2022/10/04 02:01:59;;;;;;;3.50;2.60;;;;;;;;;;5028483;28;20621;-61
2022/10/04 02:04:29;;;;;;;3.00;2.73;;;;;;;;;;5028115;28;20883;-61
2022/10/04 02:06:57;;;;;;;3.23;2.70;;;;;;;;;;5027712;28;20236;-61
2022/10/04 02:09:26;;;;;;;5.73;3.40;;;;;;;;;;5028355;28;20231;-61
2022/10/04 02:11:54;;;;;;;5.97;3.67;;;;;;;;;;5029064;28;20212;-61
2022/10/04 02:14:24;;;;;;;5.37;3.90;;;;;;;;;;5028826;28;20212;-61
2022/10/04 02:16:52;;;;;;;6.30;3.40;;;;;;;;;;5028890;28;20204;-61
2022/10/04 02:19:20;;;;;;;12.50;3.77;;;;;;;;;;5027074;28;20624;-61
2022/10/04 02:21:48;;;;;;;3.27;2.97;;;;;;;;;;5028711;28;20599;-61
2022/10/04 02:24:15;;;;;;;6.23;2.47;;;;;;;;;;5028099;28;20204;-61
2022/10/04 02:26:43;;;;;;;4.43;2.67;;;;;;;;;;5028494;28;20232;-61
2022/10/04 02:29:10;;;;;;;3.57;3.27;;;;;;;;;;5027855;28;20733;-61
2022/10/04 02:34:25;;;;;;;3.90;3.30;;;;;;;;;;5027998;28;20210;-62
2022/10/04 02:36:52;;;;;;;5.17;2.30;;;;;;;;;;5027164;28;20566;-61
2022/10/04 02:39:23;;;;;;;4.30;2.43;;;;;;;;;;5028460;28;20341;-60
2022/10/04 02:41:51;;;;;;;2.53;2.33;;;;;;;;;;5028166;28;20766;-61
2022/10/04 02:44:21;;;;;;;1.80;1.70;;;;;;;;;;5027937;28;20299;-61
2022/10/04 02:46:51;;;;;;;2.73;2.60;;;;;;;;;;5025374;28;20304;-60
2022/10/04 02:49:22;;;;;;;2.10;1.93;;;;;;;;;;5028204;28;20231;-61
2022/10/04 02:51:51;;;;;;;5.07;2.30;;;;;;;;;;5027966;28;20223;-60
2022/10/04 02:54:26;;;;;;;2.77;2.50;;;;;;;;;;5028320;28;20208;-61
2022/10/04 02:56:53;;;;;;;2.40;2.20;;;;;;;;;;5026373;28;20218;-61
2022/10/04 02:59:21;;;;;;;2.73;2.50;;;;;;;;;;5020957;28;20455;-60
2022/10/04 03:01:52;;;;;;;3.10;2.47;;;;;;;;;;5028622;28;20208;-61
2022/10/04 03:04:22;;;;;;;2.30;2.10;;;;;;;;;;5027838;28;20702;-61
2022/10/04 03:06:50;;;;;;;2.17;2.07;;;;;;;;;;5028128;28;20208;-61
2022/10/04 03:09:19;;;;;;;2.30;1.60;;;;;;;;;;5028065;28;20228;-62
2022/10/04 03:11:48;;;;;;;2.03;1.93;;;;;;;;;;5028569;28;20208;-61
2022/10/04 03:14:17;;;;;;;2.33;2.23;;;;;;;;;;5028495;28;20204;-62
2022/10/04 03:16:45;;;;;;;2.33;2.13;;;;;;;;;;5028110;28;20310;-61
2022/10/04 03:19:16;;;;;;;2.77;2.07;;;;;;;;;;5028845;28;20200;-61
2022/10/04 03:21:44;;;;;;;2.70;2.43;;;;;;;;;;5030728;28;20196;-61
2022/10/04 03:24:12;;;;;;;2.37;2.27;;;;;;;;;;5031193;28;20266;-61
2022/10/04 03:26:42;;;;;;;2.63;2.37;;;;;;;;;;5031710;28;20746;-61
2022/10/04 03:29:11;;;;;;;2.97;2.40;;;;;;;;;;5031300;28;20235;-62
2022/10/04 03:31:40;;;;;;;3.83;2.20;;;;;;;;;;5031164;28;20200;-61
2022/10/04 03:34:13;;;;;;;2.93;2.37;;;;;;;;;;5031807;28;20204;-61
2022/10/04 03:36:42;;;;;;;1.97;1.87;;;;;;;;;;5031731;28;20201;-61
2022/10/04 03:39:11;;;;;;;3.80;2.57;;;;;;;;;;5031146;28;20266;-61
2022/10/04 03:41:38;;;;;;;1.97;1.93;;;;;;;;;;5030827;28;20212;-61
2022/10/04 03:44:07;;;;;;;5.70;2.37;;;;;;;;;;5030086;28;20208;-61
2022/10/04 03:46:35;;;;;;;3.30;2.70;;;;;;;;;;5031491;28;20212;-60
2022/10/04 03:49:02;;;;;;;3.73;2.53;;;;;;;;;;5030769;28;20235;-61
2022/10/04 03:51:29;;;;;;;4.73;3.40;;;;;;;;;;5012289;28;20683;-61
2022/10/04 03:53:59;;;;;;;5.53;2.70;;;;;;;;;;5030510;28;20239;-61
2022/10/04 03:56:27;;;;;;;2.70;2.33;;;;;;;;;;5030874;28;20205;-60
2022/10/04 03:58:54;;;;;;;2.93;2.73;;;;;;;;;;5026827;28;20198;-61
2022/10/04 04:01:27;;;;;;;2.73;2.33;;;;;;;;;;5026665;28;20208;-61
2022/10/04 04:03:57;;;;;;;3.13;2.67;;;;;;;;;;5030791;28;20609;-60
2022/10/04 04:06:26;;;;;;;4.30;2.60;;;;;;;;;;5030503;28;20207;-61
2022/10/04 04:08:55;;;;;;;2.87;2.67;;;;;;;;;;5030142;28;20240;-61
2022/10/04 04:11:26;;;;;;;3.53;3.27;;;;;;;;;;5031074;28;20212;-61
2022/10/04 04:13:57;;;;;;;3.07;2.80;;;;;;;;;;5030830;28;20555;-61
2022/10/04 04:16:24;;;;;;;5.53;2.60;;;;;;;;;;5031214;28;20567;-61
2022/10/04 04:18:53;;;;;;;3.30;2.40;;;;;;;;;;5030622;28;20234;-61
2022/10/04 04:21:22;;;;;;;7.03;3.10;;;;;;;;;;5031442;28;20197;-61
2022/10/04 04:23:50;;;;;;;3.47;2.10;;;;;;;;;;5030602;28;20208;-61
2022/10/04 04:26:20;;;;;;;2.83;2.17;;;;;;;;;;5031328;28;20727;-61
2022/10/04 04:28:50;;;;;;;3.43;2.70;;;;;;;;;;5030466;28;20235;-61
2022/10/04 04:31:20;;;;;;;3.97;2.17;;;;;;;;;;5030106;28;20197;-61
2022/10/04 04:33:50;;;;;;;3.07;2.77;;;;;;;;;;5026700;28;20704;-61
2022/10/04 04:36:17;;;;;;;2.97;2.67;;;;;;;;;;5030738;28;20220;-61
2022/10/04 04:41:27;;;;;;;3.70;2.70;;;;;;;;;;5030679;28;20193;-61
2022/10/04 04:43:55;;;;;;;3.37;2.50;;;;;;;;;;5030482;28;20200;-61
2022/10/04 04:46:22;;;;;;;3.23;2.73;;;;;;;;;;5030886;28;20288;-61
2022/10/04 04:48:53;;;;;;;3.13;2.83;;;;;;;;;;5030138;28;20232;-61
2022/10/04 04:51:21;;;;;;;4.17;2.90;;;;;;;;;;5030836;28;20219;-61
2022/10/04 04:53:49;;;;;;;3.93;2.83;;;;;;;;;;5030371;28;20234;-61
2022/10/04 04:56:20;;;;;;;3.27;2.97;;;;;;;;;;5030891;28;20211;-61
2022/10/04 04:58:48;;;;;;;7.83;2.80;;;;;;;;;;5030448;28;20657;-61
2022/10/04 05:01:20;;;;;;;5.30;3.37;;;;;;;;;;5030290;28;20209;-59
2022/10/04 05:04:00;;;;;;;3.63;3.13;;;;;;;;;;5029725;28;20232;-61
2022/10/04 05:06:29;;;;;;;6.80;2.60;;;;;;;;;;5030517;28;20694;-62
2022/10/04 05:08:56;;;;;;;3.17;2.87;;;;;;;;;;5030213;28;20236;-59
2022/10/04 05:11:24;;;;;;;3.77;3.23;;;;;;;;;;5030068;28;20231;-59
2022/10/04 05:13:52;;;;;;;4.47;3.57;;;;;;;;;;5029126;28;20196;-59
2022/10/04 05:16:23;;;;;;;11.80;3.30;;;;;;;;;;5030250;28;20204;-59
2022/10/04 05:18:54;;;;;;;5.77;3.60;;;;;;;;;;5030306;28;20200;-60
2022/10/04 05:21:24;;;;;;;5.13;3.30;;;;;;;;;;5030166;28;20213;-59
2022/10/04 05:23:51;;;;;;;9.43;2.87;;;;;;;;;;5029019;28;20204;-60
2022/10/04 05:26:25;;;;;;;9.90;3.40;;;;;;;;;;5028941;28;20260;-59
2022/10/04 05:28:52;;;;;;;8.00;3.30;;;;;;;;;;5029023;28;20516;-60
2022/10/04 05:31:37;;;;;;;3.70;3.30;;;;;;;;;;5030477;28;20795;-60
2022/10/04 05:34:15;;;;;;;8.90;2.90;;;;;;;;;;5029184;28;20317;-59
2022/10/04 05:36:47;;;;;;;5.97;3.53;;;;;;;;;;5029176;28;20216;-59
2022/10/04 05:39:19;;;;;;;13.47;3.13;;;;;;;;;;5029686;28;20640;-60
2022/10/04 05:41:50;;;;;;;9.57;3.63;;;;;;;;;;5030261;28;20227;-59
2022/10/04 05:44:20;;;;;;;6.77;3.73;;;;;;;;;;5029355;28;20220;-60
2022/10/04 05:46:47;;;;;;;5.57;4.23;;;;;;;;;;5029082;28;20240;-61
2022/10/04 05:49:16;;;;;;;5.53;3.93;;;;;;;;;;5028810;28;20226;-60
2022/10/04 05:51:49;;;;;;;9.53;3.73;;;;;;;;;;5028622;28;20307;-60
2022/10/04 05:54:19;;;;;;;5.93;4.23;;;;;;;;;;5029292;28;20212;-60
2022/10/04 05:56:55;;;;;;;5.47;3.73;;;;;;;;;;5029475;28;20216;-60
2022/10/04 05:59:28;;;;;;;11.03;4.23;;;;;;;;;;5028800;28;20286;-60
2022/10/04 06:01:57;;;;;;;8.83;4.60;;;;;;;;;;5029301;28;20226;-60
2022/10/04 06:04:39;;;;;;;10.87;5.37;;;;;;;;;;5029368;28;20248;-60
2022/10/04 06:07:15;;;;;;;13.63;6.07;;;;;;;;;;5026490;28;20215;-60
2022/10/04 06:09:54;;;;;;;10.57;5.33;;;;;;;;;;5028768;28;20231;-59
2022/10/04 06:12:29;;;;;;;20.63;5.53;;;;;;;;;;5029056;28;20211;-59
2022/10/04 06:15:15;;;;;;;21.70;4.40;;;;;;;;;;5029497;28;20289;-60
2022/10/04 06:17:50;;;;;;;4.80;3.43;;;;;;;;;;5028679;28;20673;-59
2022/10/04 06:20:42;;;;;;;6.80;3.80;;;;;;;;;;5029030;28;20214;-60
2022/10/04 06:23:14;;;;;;;6.90;4.13;;;;;;;;;;5028386;28;20254;-59
2022/10/04 06:25:46;;;;;;;19.53;6.10;;;;;;;;;;5028490;28;20244;-59
2022/10/04 06:28:16;;;;;;;41.07;9.37;;;;;;;;;;5028268;28;20242;-59
2022/10/04 06:30:51;;;;;;;22.87;8.37;;;;;;;;;;5028670;28;20244;-60
2022/10/04 06:33:23;;;;;;;13.47;6.07;;;;;;;;;;5029092;28;20204;-60
2022/10/04 06:36:05;;;;;;;14.23;5.57;;;;;;;;;;5028934;28;20204;-59
2022/10/04 06:38:55;;;;;;;12.07;5.37;;;;;;;;;;5028339;28;20258;-59
2022/10/04 06:41:28;;;;;;;7.93;5.07;;;;;;;;;;5018916;28;20748;-59
2022/10/04 06:44:03;;;;;;;14.47;5.27;;;;;;;;;;5028269;28;20208;-59
2022/10/04 06:46:33;;;;;;;12.03;4.97;;;;;;;;;;5028663;28;20204;-60
2022/10/04 06:49:10;;;;;;;10.17;4.20;;;;;;;;;;5028520;28;20711;-59
2022/10/04 06:51:43;;;;;;;17.03;5.50;;;;;;;;;;5028544;28;20215;-59
2022/10/04 06:54:21;;;;;;;13.90;4.90;;;;;;;;;;5027683;28;20295;-60
2022/10/04 06:56:57;;;;;;;9.37;5.03;;;;;;;;;;5028128;28;20219;-60
2022/10/04 06:59:36;;;;;;;11.33;5.03;;;;;;;;;;5028128;28;20219;-59
2022/10/04 07:02:06;;;;;;;8.67;4.67;;;;;;;;;;5028665;28;20227;-60
2022/10/04 07:04:36;;;;;;;10.60;4.37;;;;;;;;;;5028402;28;20232;-60
2022/10/04 07:07:25;;;;;;;8.00;3.80;;;;;;;;;;5027964;28;20236;-60
2022/10/04 07:09:56;;;;;;;11.60;4.57;;;;;;;;;;5028739;28;20322;-60
2022/10/04 07:12:24;;;;;;;4.00;2.77;;;;;;;;;;5028150;28;20204;-60
2022/10/04 07:14:52;;;;;;;5.37;3.00;;;;;;;;;;5028672;28;20219;-60
2022/10/04 07:17:22;;;;;;;12.60;3.63;;;;;;;;;;5027464;28;20594;-60
2022/10/04 07:19:50;;;;;;;5.03;2.93;;;;;;;;;;5028051;28;20204;-59
2022/10/04 07:22:20;;;;;;;2.70;2.50;;;;;;;;;;5028908;28;20219;-60
2022/10/04 07:25:10;;;;;;;4.87;2.50;;;;;;;;;;5028370;28;20219;-61
2022/10/04 07:27:46;;;;;;;1.90;1.80;;;;;;;;;;5027612;28;20244;-60
2022/10/04 07:30:15;;;;;;;1.70;1.60;;;;;;;;;;5021979;28;20223;-60
2022/10/04 07:32:45;;;;;;;1.60;1.50;;;;;;;;;;5028874;28;20521;-60
2022/10/04 07:35:16;;;;;;;2.20;1.53;;;;;;;;;;5028366;28;20979;-60
2022/10/04 07:37:49;;;;;;;2.93;2.20;;;;;;;;;;5028487;28;20217;-59
2022/10/04 07:40:22;;;;;;;1.63;1.53;;;;;;;;;;5027954;28;20642;-60
2022/10/04 07:42:53;;;;;;;1.83;1.73;;;;;;;;;;5028080;28;20573;-59
2022/10/04 07:45:22;;;;;;;1.80;1.80;;;;;;;;;;5027265;28;20204;-59
2022/10/04 07:47:49;;;;;;;2.43;1.60;;;;;;;;;;5026653;28;20521;-59
2022/10/04 07:50:26;;;;;;;1.20;1.20;;;;;;;;;;5026844;28;20228;-60
2022/10/04 07:52:56;;;;;;;1.50;1.40;;;;;;;;;;5023026;28;20216;-59
2022/10/04 07:55:30;;;;;;;4.17;1.83;;;;;;;;;;5027738;28;20232;-59
2022/10/04 07:58:06;;;;;;;1.80;1.73;;;;;;;;;;5023542;28;20299;-59
2022/10/04 08:00:40;;;;;;;1.87;1.77;;;;;;;;;;5024418;28;20204;-59
2022/10/04 08:03:16;;;;;;;1.57;1.47;;;;;;;;;;5026905;28;20233;-60
2022/10/04 08:05:45;;;;;;;4.67;2.17;;;;;;;;;;5027714;28;20333;-60
2022/10/04 08:08:24;;;;;;;1.60;1.50;;;;;;;;;;5026953;28;20205;-61
2022/10/04 08:10:55;;;;;;;1.50;1.40;;;;;;;;;;5030944;28;20228;-61
2022/10/04 08:13:26;;;;;;;1.67;1.67;;;;;;;;;;5030751;28;20228;-61
2022/10/04 08:15:55;;;;;;;3.67;1.90;;;;;;;;;;5030550;28;20204;-61
2022/10/04 08:18:28;;;;;;;1.90;1.80;;;;;;;;;;5030311;28;20204;-60
2022/10/04 08:20:57;;;;;;;3.40;1.40;;;;;;;;;;5030990;28;20200;-61
2022/10/04 08:23:39;;;;;;;1.40;1.40;;;;;;;;;;5030787;28;20216;-61
2022/10/04 08:26:13;;;;;;;1.77;1.50;;;;;;;;;;5025223;28;20236;-61
2022/10/04 08:31:45;;;;;;;1.53;1.43;;;;;;;;;;4986176;28;20750;-62
2022/10/04 08:34:20;;;;;;;1.60;1.43;;;;;;;;;;5010612;28;20588;-61
2022/10/04 08:36:54;;;;;;;1.50;1.40;;;;;;;;;;5026823;28;20216;-62
2022/10/04 08:39:30;;;;;;;1.27;1.27;;;;;;;;;;5018779;28;20208;-59
2022/10/04 08:42:09;;;;;;;1.90;1.37;;;;;;;;;;5029201;28;20215;-60
2022/10/04 08:44:56;;;;;;;1.57;1.57;;;;;;;;;;5028035;28;20295;-60
2022/10/04 08:47:49;;;;;;;1.70;1.60;;;;;;;;;;5029947;28;20204;-60
2022/10/04 08:50:34;;;;;;;3.67;1.97;;;;;;;;;;5029095;28;20687;-60
2022/10/04 08:53:31;;;;;;;1.97;1.73;;;;;;;;;;5032621;28;20590;-59
2022/10/04 08:56:13;;;;;;;2.97;1.60;;;;;;;;;;4948335;28;20640;-61
2022/10/04 08:59:05;;;;;;;4.53;1.20;;;;;;;;;;5018800;28;20659;-60
2022/10/04 09:01:46;;;;;;;1.90;1.80;;;;;;;;;;5031868;28;20208;-60
2022/10/04 09:04:40;;;;;;;4.93;1.70;;;;;;;;;;5026066;28;20220;-60
2022/10/04 09:07:21;;;;;;;2.13;1.93;;;;;;;;;;5032598;28;20205;-61
2022/10/04 09:09:54;;;;;;;1.77;1.23;;;;;;;;;;5032854;28;20231;-60
2022/10/04 09:12:48;;;;;;;1.83;1.73;;;;;;;;;;5044358;28;20578;-61
2022/10/04 09:15:18;;;;;;;1.33;1.33;;;;;;;;;;5018709;28;20223;-61
2022/10/04 09:17:54;;;;;;;1.90;1.80;;;;;;;;;;5028862;28;20205;-61
2022/10/04 09:20:23;;;;;;;2.30;2.10;;;;;;;;;;5029867;28;20215;-61
2022/10/04 09:22:56;;;;;;;1.43;1.33;;;;;;;;;;5036887;28;20964;-62
2022/10/04 09:25:41;;;;;;;3.17;1.53;;;;;;;;;;5028944;28;20216;-62
2022/10/04 09:28:19;;;;;;;2.93;1.90;;;;;;;;;;5028525;28;20212;-62
2022/10/04 09:31:04;;;;;;;1.60;1.60;;;;;;;;;;5028276;28;20228;-62
2022/10/04 09:33:43;;;;;;;1.67;1.57;;;;;;;;;;5018868;28;20224;-63
2022/10/04 09:36:18;;;;;;;1.50;1.40;;;;;;;;;;5009738;28;20580;-63
2022/10/04 09:39:00;;;;;;;1.80;1.70;;;;;;;;;;5009847;28;20633;-63
2022/10/04 09:41:33;;;;;;;1.80;1.50;;;;;;;;;;5028693;28;20201;-63
2022/10/04 09:44:15;;;;;;;1.53;1.43;;;;;;;;;;5032143;28;20208;-61
2022/10/04 09:46:51;;;;;;;1.93;1.73;;;;;;;;;;5013634;28;20663;-61
2022/10/04 09:49:31;;;;;;;1.42;1.42;;;;;;;;;;5036838;28;20204;-62
2022/10/04 09:52:15;;;;;;;6.03;1.70;;;;;;;;;;5028654;28;20208;-62
2022/10/04 09:54:55;;;;;;;2.05;1.95;;;;;;;;;;5028884;28;20215;-61
2022/10/04 09:57:29;;;;;;;1.95;1.65;;;;;;;;;;5028466;28;20299;-59
2022/10/04 10:00:05;;;;;;;3.80;1.67;;;;;;;;;;5028326;28;20295;-64
2022/10/04 10:02:48;;;;;;;2.22;1.58;;;;;;;;;;5027979;28;20196;-61
2022/10/04 10:05:23;;;;;;;1.70;1.45;;;;;;;;;;5028213;28;20629;-59
2022/10/04 10:07:54;;;;;;;2.20;1.70;;;;;;;;;;5028639;28;20215;-62
2022/10/04 10:13:42;;;;;;;1.23;1.13;;;;;;;;;;5028185;28;20386;-62
2022/10/04 10:16:19;;;;;;;1.45;1.35;;;;;;;;;;5025589;28;20258;-61
2022/10/04 10:18:50;;;;;;;1.85;1.83;;;;;;;;;;5023598;28;20236;-61
2022/10/04 10:21:27;;;;;;;2.08;1.38;;;;;;;;;;5027044;28;20201;-60
2022/10/04 10:24:01;;;;;;;1.60;1.60;;;;;;;;;;5026740;28;20208;-61
2022/10/04 10:26:36;;;;;;;1.70;1.60;;;;;;;;;;5027452;28;20648;-62
2022/10/04 10:29:29;;;;;;;1.80;1.70;;;;;;;;;;5027177;28;20316;-61
2022/10/04 10:32:08;;;;;;;2.28;1.80;;;;;;;;;;4992372;28;20213;-62
2022/10/04 10:35:07;;;;;;;1.58;1.48;;;;;;;;;;5022998;28;20209;-61
2022/10/04 10:37:41;;;;;;;1.67;1.65;;;;;;;;;;5019194;28;20291;-62
2022/10/04 10:40:26;;;;;;;1.77;1.40;;;;;;;;;;5027882;28;20197;-61
2022/10/04 10:43:19;;;;;;;2.63;1.83;;;;;;;;;;5028671;28;20204;-62
2022/10/04 10:46:03;;;;;;;1.65;1.30;;;;;;;;;;5027460;28;20208;-62
2022/10/04 10:48:35;;;;;;;2.28;1.70;;;;;;;;;;5025328;28;20581;-62
2022/10/04 10:51:10;;;;;;;1.30;1.27;;;;;;;;;;5027982;28;20258;-62
2022/10/04 10:53:51;;;;;;;1.60;1.20;;;;;;;;;;5028036;28;20281;-62
2022/10/04 10:56:31;;;;;;;2.88;1.83;;;;;;;;;;5026039;28;20224;-61
2022/10/04 10:59:16;;;;;;;1.77;1.70;;;;;;;;;;5008530;28;20595;-61
2022/10/04 11:01:54;;;;;;;2.58;1.70;;;;;;;;;;5008619;28;20225;-61
2022/10/04 11:04:36;;;;;;;2.70;1.23;;;;;;;;;;5011300;28;20776;-61
2022/10/04 11:07:12;;;;;;;1.15;1.10;;;;;;;;;;5028234;28;20588;-60
2022/10/04 11:09:53;;;;;;;2.00;1.48;;;;;;;;;;5027618;28;20701;-61
2022/10/04 11:12:47;;;;;;;1.52;1.45;;;;;;;;;;5026763;28;20570;-61
2022/10/04 11:15:37;;;;;;;1.55;1.55;;;;;;;;;;5027908;28;20220;-62
2022/10/04 11:18:28;;;;;;;1.83;1.73;;;;;;;;;;5028212;28;20800;-61
2022/10/04 11:21:24;;;;;;;1.42;1.23;;;;;;;;;;5012357;28;20339;-61
2022/10/04 11:24:07;;;;;;;3.67;1.73;;;;;;;;;;5015113;28;20216;-62
2022/10/04 11:26:57;;;;;;;1.90;1.60;;;;;;;;;;5008265;28;20678;-62
2022/10/04 11:29:34;;;;;;;4.60;1.90;;;;;;;;;;5011540;28;20212;-62
2022/10/04 11:32:14;;;;;;;3.47;2.38;;;;;;;;;;5027822;28;20707;-61
2022/10/04 11:35:03;;;;;;;3.15;2.40;;;;;;;;;;5026367;28;20200;-62
2022/10/04 11:37:42;;;;;;;2.75;2.42;;;;;;;;;;5027712;28;20209;-62
2022/10/04 11:40:15;;;;;;;3.22;2.65;;;;;;;;;;5029151;28;20215;-62
2022/10/04 11:42:55;;;;;;;2.38;2.17;;;;;;;;;;5031284;28;20270;-62
2022/10/04 11:45:37;;;;;;;3.53;1.98;;;;;;;;;;5028939;28;20204;-62
2022/10/04 11:48:13;;;;;;;3.53;1.95;;;;;;;;;;5029619;28;20215;-62
2022/10/04 11:50:50;;;;;;;1.95;1.85;;;;;;;;;;5030864;28;20240;-62
2022/10/04 11:53:24;;;;;;;2.45;1.88;;;;;;;;;;5031196;28;20216;-62
2022/10/04 11:56:04;;;;;;;3.70;1.98;;;;;;;;;;5030966;28;20211;-62
2022/10/04 11:58:36;;;;;;;2.13;1.98;;;;;;;;;;5027830;28;20211;-62
2022/10/04 12:01:21;;;;;;;5.85;2.55;;;;;;;;;;5025987;28;20205;-66
2022/10/04 12:03:56;;;;;;;2.08;1.98;;;;;;;;;;5030685;28;20232;-67
2022/10/04 12:06:34;;;;;;;4.57;2.70;;;;;;;;;;5031224;28;20615;-66
2022/10/04 12:09:05;;;;;;;3.05;2.75;;;;;;;;;;5030938;28;20216;-66
2022/10/04 12:14:37;;;;;;;5.15;2.88;;;;;;;;;;5024136;28;20203;-63
2022/10/04 12:17:23;;;;;;;4.72;3.35;;;;;;;;;;5020598;28;20745;-63
2022/10/04 12:19:58;;;;;;;3.33;3.00;;;;;;;;;;5029452;28;20207;-62
2022/10/04 12:22:39;;;;;;;4.72;3.10;;;;;;;;;;5030615;28;20670;-62
2022/10/04 12:25:25;;;;;;;3.40;2.47;;;;;;;;;;5029690;28;20460;-63
2022/10/04 12:27:59;;;;;;;3.25;2.90;;;;;;;;;;5029982;28;20669;-63
2022/10/04 12:30:35;;;;;;;5.43;3.00;;;;;;;;;;5028260;28;20278;-62
2022/10/04 12:33:09;;;;;;;3.50;3.10;;;;;;;;;;5029923;28;20228;-61
2022/10/04 12:35:54;;;;;;;3.20;3.00;;;;;;;;;;5030144;28;20196;-62
2022/10/04 12:38:27;;;;;;;3.92;3.55;;;;;;;;;;5030875;28;20812;-66
2022/10/04 12:40:57;;;;;;;4.13;3.72;;;;;;;;;;5029625;28;20212;-66
2022/10/04 12:43:29;;;;;;;3.65;3.25;;;;;;;;;;5030174;28;20212;-66
2022/10/04 12:46:05;;;;;;;4.50;3.15;;;;;;;;;;5029916;28;20213;-61
2022/10/04 12:48:50;;;;;;;3.45;3.10;;;;;;;;;;5028460;28;20207;-62
2022/10/04 12:51:26;;;;;;;2.70;2.60;;;;;;;;;;5020850;28;20319;-63
2022/10/04 12:53:56;;;;;;;3.85;3.08;;;;;;;;;;5020518;28;20582;-61
2022/10/04 12:56:32;;;;;;;3.75;3.00;;;;;;;;;;5029920;28;20215;-61
2022/10/04 12:59:04;;;;;;;2.67;2.58;;;;;;;;;;5028678;28;20231;-62
2022/10/04 13:01:36;;;;;;;2.97;2.65;;;;;;;;;;5030452;28;20200;-61
2022/10/04 13:04:11;;;;;;;5.35;3.20;;;;;;;;;;5030457;28;20236;-61
2022/10/04 13:06:42;;;;;;;3.40;2.67;;;;;;;;;;5026612;28;20303;-62
2022/10/04 13:09:11;;;;;;;4.85;2.75;;;;;;;;;;5029077;28;20299;-62
2022/10/04 13:11:44;;;;;;;2.67;2.58;;;;;;;;;;5030190;28;20933;-62
2022/10/04 13:14:24;;;;;;;3.20;2.80;;;;;;;;;;5030466;28;20216;-62
2022/10/04 13:16:56;;;;;;;2.72;2.45;;;;;;;;;;5028665;28;20666;-62
2022/10/04 13:19:24;;;;;;;2.75;2.58;;;;;;;;;;5027163;28;20271;-62
2022/10/04 13:22:16;;;;;;;1.90;1.90;;;;;;;;;;5029464;28;20219;-62
2022/10/04 13:24:56;;;;;;;2.38;2.25;;;;;;;;;;5014676;28;20223;-62
2022/10/04 13:27:29;;;;;;;2.55;2.30;;;;;;;;;;5028728;28;20654;-62
2022/10/04 13:30:01;;;;;;;3.00;2.72;;;;;;;;;;5028541;28;20267;-62
2022/10/04 13:32:33;;;;;;;3.22;2.00;;;;;;;;;;5029060;28;20324;-62
2022/10/04 13:35:04;;;;;;;2.05;1.95;;;;;;;;;;5028834;28;20200;-62
2022/10/04 13:37:35;;;;;;;1.70;1.60;;;;;;;;;;5029612;28;20702;-61
2022/10/04 13:40:12;;;;;;;2.00;1.90;;;;;;;;;;5029027;28;20216;-61
2022/10/04 13:42:47;;;;;;;2.05;1.95;;;;;;;;;;5029781;28;20558;-62
2022/10/04 13:45:25;;;;;;;2.00;1.75;;;;;;;;;;5029816;28;20230;-61
2022/10/04 13:47:59;;;;;;;4.22;1.90;;;;;;;;;;5029553;28;20208;-62
2022/10/04 13:50:34;;;;;;;3.20;1.90;;;;;;;;;;5029493;28;20718;-61
2022/10/04 13:58:45;;;;;;;1.80;1.70;;;;;;;;;;5021195;28;20239;-62
2022/10/04 14:01:39;;;;;;;1.45;1.45;;;;;;;;;;5027682;28;20228;-61
2022/10/04 14:04:11;;;;;;;1.77;1.55;;;;;;;;;;5028732;28;20224;-62
2022/10/04 14:06:56;;;;;;;2.92;2.10;;;;;;;;;;5029210;28;20216;-62
2022/10/04 14:09:35;;;;;;;3.28;1.90;;;;;;;;;;5028080;28;20587;-62
2022/10/04 14:12:32;;;;;;;1.35;1.25;;;;;;;;;;5029081;28;20232;-62
2022/10/04 14:15:23;;;;;;;2.03;1.80;;;;;;;;;;5028647;28;20219;-59
2022/10/04 14:18:04;;;;;;;1.88;1.88;;;;;;;;;;5028057;28;20227;-60
2022/10/04 14:20:56;;;;;;;1.83;1.73;;;;;;;;;;5028366;28;20322;-59
2022/10/04 14:23:56;;;;;;;2.50;2.30;;;;;;;;;;5028449;28;20215;-61
2022/10/04 14:26:41;;;;;;;1.77;1.67;;;;;;;;;;4967819;28;20241;-62
2022/10/04 14:29:35;;;;;;;2.28;2.05;;;;;;;;;;4967429;28;20206;-62
2022/10/04 14:32:11;;;;;;;3.83;1.67;;;;;;;;;;4975803;28;20236;-62
2022/10/04 14:34:54;;;;;;;1.60;1.50;;;;;;;;;;5028662;28;20581;-62
2022/10/04 14:37:38;;;;;;;1.90;1.83;;;;;;;;;;5028843;28;20670;-62
2022/10/04 14:40:11;;;;;;;1.75;1.67;;;;;;;;;;5028734;28;20212;-60
2022/10/04 14:42:57;;;;;;;1.55;1.50;;;;;;;;;;5028823;28;20207;-61
2022/10/04 14:45:36;;;;;;;3.83;2.45;;;;;;;;;;5028486;28;20207;-60
2022/10/04 14:48:26;;;;;;;2.13;1.95;;;;;;;;;;5025711;28;20200;-61
2022/10/04 14:51:20;;;;;;;2.15;2.05;;;;;;;;;;5028593;28;20216;-60
2022/10/04 14:53:59;;;;;;;7.13;1.73;;;;;;;;;;4991549;28;20455;-60
2022/10/04 14:56:43;;;;;;;2.22;2.13;;;;;;;;;;5028415;28;20216;-60
2022/10/04 14:59:25;;;;;;;3.08;1.95;;;;;;;;;;5028047;28;20208;-61
2022/10/04 15:02:10;;;;;;;2.20;1.85;;;;;;;;;;5018586;28;20662;-60
2022/10/04 15:04:58;;;;;;;1.63;1.55;;;;;;;;;;5026757;28;20794;-63
2022/10/04 15:07:29;;;;;;;4.30;1.63;;;;;;;;;;5019409;28;20231;-59
2022/10/04 15:10:04;;;;;;;2.45;2.25;;;;;;;;;;5026529;28;20212;-61
2022/10/04 15:12:55;;;;;;;1.90;1.80;;;;;;;;;;5020954;28;20326;-59
2022/10/04 15:15:30;;;;;;;2.20;2.10;;;;;;;;;;5013357;28;20219;-60
2022/10/04 15:18:02;;;;;;;3.60;2.28;;;;;;;;;;5012021;28;20220;-61
2022/10/04 15:20:30;;;;;;;2.72;2.25;;;;;;;;;;5028660;28;20291;-61
2022/10/04 15:23:10;;;;;;;2.65;2.22;;;;;;;;;;5031357;28;20671;-61
2022/10/04 15:25:40;;;;;;;2.30;2.10;;;;;;;;;;5030472;28;20362;-60
2022/10/04 15:28:12;;;;;;;6.07;2.28;;;;;;;;;;5031445;28;20220;-61
2022/10/04 15:30:47;;;;;;;2.03;1.88;;;;;;;;;;5030926;28;20208;-61
2022/10/04 15:33:29;;;;;;;1.92;1.80;;;;;;;;;;5030871;28;20196;-61
2022/10/04 15:36:26;;;;;;;4.38;2.50;;;;;;;;;;5029662;28;20216;-60
2022/10/04 15:39:01;;;;;;;3.08;2.08;;;;;;;;;;5031217;28;20219;-60
2022/10/04 15:41:33;;;;;;;2.00;1.88;;;;;;;;;;5031160;28;20210;-61
2022/10/04 15:44:25;;;;;;;4.63;2.28;;;;;;;;;;5030369;28;20217;-61
2022/10/04 15:46:55;;;;;;;2.67;2.47;;;;;;;;;;5030873;28;20200;-61
2022/10/04 15:49:28;;;;;;;2.55;1.95;;;;;;;;;;5029846;28;20254;-61